Time;durP1;ratioP1;P1;durP2;ratioP2;P2;SDS_P1;SDS_P2;PMS_P1;PMS_P2;Temp;Humidity;BMP_temperature;BMP_pressure;BME280_temperature;BME280_humidity;BME280_pressure;Samples;Min_cycle;Max_cycle;Signal;HPM_P1;HPM_P2
2021/01/19 00:00:17;;;;;;;10.52;6.82;;;;;;;8.15;91.14;99841.78;4994061;28;20054;-54
2021/01/19 00:02:44;;;;;;;10.93;7.07;;;;;;;8.15;91.14;99839.03;4992324;28;20113;-53
2021/01/19 00:05:10;;;;;;;9.23;6.20;;;;;;;8.15;91.07;99829.94;4993847;28;20155;-54
2021/01/19 00:07:37;;;;;;;11.65;7.05;;;;;;;8.16;91.13;99828.75;4992924;28;20062;-55
2021/01/19 00:10:05;;;;;;;9.55;6.53;;;;;;;8.15;91.12;99833.50;4976071;28;20428;-53
2021/01/19 00:12:32;;;;;;;11.52;7.30;;;;;;;8.15;90.98;99818.91;4992216;28;20124;-51
2021/01/19 00:14:58;;;;;;;11.80;7.75;;;;;;;8.15;91.09;99818.91;4974199;28;20388;-53
2021/01/19 00:17:25;;;;;;;12.20;7.43;;;;;;;8.14;91.25;99814.53;4975964;28;20519;-55
2021/01/19 00:19:51;;;;;;;13.25;8.75;;;;;;;8.15;91.09;99814.22;4994114;28;20039;-54
2021/01/19 00:22:18;;;;;;;14.07;9.20;;;;;;;8.14;91.19;99809.03;4993038;28;20042;-56
2021/01/19 00:24:44;;;;;;;13.48;8.88;;;;;;;8.14;91.14;99806.28;4993553;28;20061;-54
2021/01/19 00:27:10;;;;;;;13.52;8.13;;;;;;;8.14;91.10;99795.25;4992635;28;20096;-55
2021/01/19 00:29:36;;;;;;;14.80;9.65;;;;;;;8.13;91.19;99791.69;4993441;28;20496;-53
2021/01/19 00:32:04;;;;;;;17.20;9.23;;;;;;;8.14;91.34;99790.53;4989743;28;20130;-51
2021/01/19 00:34:30;;;;;;;18.95;10.70;;;;;;;8.14;91.37;99781.47;4967618;28;20110;-55
2021/01/19 00:36:56;;;;;;;14.88;9.18;;;;;;;8.14;91.40;99784.22;4988079;28;20046;-56
2021/01/19 00:39:24;;;;;;;16.48;9.55;;;;;;;8.14;91.36;99786.97;4992364;28;20494;-57
2021/01/19 00:41:50;;;;;;;16.63;9.63;;;;;;;8.14;91.47;99781.47;4992638;28;20485;-56
2021/01/19 00:44:16;;;;;;;14.15;9.15;;;;;;;8.14;91.57;99778.69;4993268;28;20101;-52
2021/01/19 00:46:43;;;;;;;16.50;9.85;;;;;;;8.15;91.43;99781.13;4993012;28;20046;-54
2021/01/19 00:49:12;;;;;;;18.17;9.05;;;;;;;8.15;91.48;99769.28;4991121;28;20038;-55
2021/01/19 00:51:38;;;;;;;19.27;9.75;;;;;;;8.15;91.36;99763.78;4993007;28;20104;-54
2021/01/19 00:54:05;;;;;;;16.02;9.05;;;;;;;8.15;91.53;99763.78;4989151;28;20043;-56
2021/01/19 00:56:40;;;;;;;18.23;10.45;;;;;;;8.14;91.46;99756.66;4992523;28;20050;-53
2021/01/19 00:59:07;;;;;;;19.30;9.95;;;;;;;8.14;91.39;99760.22;4992436;28;20467;-56
2021/01/19 01:01:35;;;;;;;16.17;9.82;;;;;;;8.15;91.48;99763.78;4992491;28;20085;-53
2021/01/19 01:04:04;;;;;;;17.85;10.30;;;;;;;8.15;91.53;99756.31;4992596;28;20470;-56
2021/01/19 01:06:31;;;;;;;16.15;9.93;;;;;;;8.16;91.44;99754.31;4991806;28;20077;-53
2021/01/19 01:08:57;;;;;;;17.23;10.75;;;;;;;8.16;91.57;99748.81;4992306;28;20399;-57
2021/01/19 01:11:23;;;;;;;17.17;10.05;;;;;;;8.16;91.44;99746.06;4974956;28;20050;-55
2021/01/19 01:13:50;;;;;;;26.00;13.63;;;;;;;8.17;91.58;99747.66;4990591;28;20063;-55
2021/01/19 01:16:16;;;;;;;21.85;13.13;;;;;;;8.17;91.48;99739.41;4991982;28;20449;-52
2021/01/19 01:18:42;;;;;;;21.35;12.23;;;;;;;8.16;91.63;99732.28;4992298;28;20078;-54
2021/01/19 01:21:12;;;;;;;23.60;13.68;;;;;;;8.18;91.24;99730.00;4991375;28;20044;-55
2021/01/19 01:23:38;;;;;;;18.33;11.65;;;;;;;8.17;91.65;99739.41;4992334;28;20444;-54
2021/01/19 01:26:05;;;;;;;20.85;12.20;;;;;;;8.18;91.75;99730.00;4977211;28;20073;-56
2021/01/19 01:28:34;;;;;;;19.25;11.63;;;;;;;8.17;91.52;99725.63;4992381;28;20034;-57
2021/01/19 01:31:00;;;;;;;17.38;10.65;;;;;;;8.18;91.55;99727.22;4991658;28;20575;-55
2021/01/19 01:33:27;;;;;;;17.38;10.07;;;;;;;8.18;91.70;99730.00;4991728;28;20054;-53
2021/01/19 01:35:54;;;;;;;15.68;8.80;;;;;;;8.18;91.65;99718.97;4992251;28;20035;-55
2021/01/19 01:38:20;;;;;;;13.02;7.78;;;;;;;8.18;91.59;99718.97;4973663;28;20069;-52
2021/01/19 01:40:47;;;;;;;10.90;6.82;;;;;;;8.18;91.50;99707.94;4990638;28;20038;-56
2021/01/19 01:43:14;;;;;;;10.07;6.10;;;;;;;8.19;91.69;99715.03;4973557;28;20046;-55
2021/01/19 01:45:41;;;;;;;10.30;7.07;;;;;;;8.19;91.72;99709.53;4991758;28;20048;-56
2021/01/19 01:48:10;;;;;;;10.18;6.90;;;;;;;8.19;91.76;99699.28;4975047;28;20050;-55
2021/01/19 01:50:38;;;;;;;12.68;6.60;;;;;;;8.20;91.46;99697.34;4982378;28;20392;-54
2021/01/19 01:53:06;;;;;;;10.68;6.28;;;;;;;8.20;91.63;99695.41;4972594;28;20039;-53
2021/01/19 01:55:34;;;;;;;10.70;6.85;;;;;;;8.21;91.81;99701.69;4983538;28;20083;-55
2021/01/19 01:58:01;;;;;;;10.80;6.55;;;;;;;8.20;91.81;99689.06;4956474;28;20113;-52
2021/01/19 02:00:27;;;;;;;8.13;5.70;;;;;;;8.20;91.81;99689.06;4971561;28;20066;-52
2021/01/19 02:02:56;;;;;;;8.50;5.45;;;;;;;8.20;91.67;99684.38;4972393;28;20054;-54
2021/01/19 02:05:26;;;;;;;8.82;6.00;;;;;;;8.21;91.57;99679.63;4972448;28;20051;-55
2021/01/19 02:08:02;;;;;;;8.02;5.30;;;;;;;8.21;91.74;99679.63;4972410;28;20042;-56
2021/01/19 02:10:36;;;;;;;7.90;4.85;;;;;;;8.22;91.65;99681.25;4972277;28;20085;-53
2021/01/19 02:13:15;;;;;;;8.70;5.10;;;;;;;8.21;91.76;99674.91;4970129;28;20477;-52
2021/01/19 02:15:50;;;;;;;6.55;4.97;;;;;;;8.22;91.65;99678.47;4972273;28;20453;-53
2021/01/19 02:18:37;;;;;;;6.97;4.25;;;;;;;8.21;91.67;99679.63;4972412;28;20133;-54
2021/01/19 02:21:38;;;;;;;7.85;4.65;;;;;;;8.22;91.70;99681.25;4971421;28;20047;-57
2021/01/19 02:24:13;;;;;;;6.45;3.88;;;;;;;8.21;91.51;99679.63;4954925;28;20047;-53
2021/01/19 02:26:39;;;;;;;4.63;4.00;;;;;;;8.21;91.77;99687.91;4970624;28;20540;-54
2021/01/19 02:29:23;;;;;;;7.35;4.43;;;;;;;8.21;91.66;99696.16;4954491;28;20077;-57
2021/01/19 02:31:55;;;;;;;6.00;3.90;;;;;;;8.21;91.75;99690.66;4964595;28;20047;-53
2021/01/19 02:34:27;;;;;;;;;;;;;;;8.19;91.83;99673.69;4972771;28;20093;-56
2021/01/19 02:37:17;;;;;;;5.18;3.28;;;;;;;8.19;91.97;99676.44;4971711;28;19937;-55
2021/01/19 02:40:07;;;;;;;6.35;3.75;;;;;;;8.18;91.72;99667.34;4970880;28;20078;-55
2021/01/19 02:42:43;;;;;;;4.32;3.15;;;;;;;8.19;91.68;99671.72;4971640;28;20042;-54
2021/01/19 02:45:11;;;;;;;4.50;2.60;;;;;;;8.19;91.71;99659.88;4972544;28;20090;-53
2021/01/19 02:47:41;;;;;;;5.07;3.10;;;;;;;8.19;91.72;99659.88;4970759;28;20042;-56
2021/01/19 02:50:11;;;;;;;4.40;2.80;;;;;;;8.19;91.67;99660.69;4974103;28;20086;-56
2021/01/19 02:52:38;;;;;;;2.97;2.38;;;;;;;8.18;91.55;99650.81;4971107;28;20077;-56
2021/01/19 02:55:09;;;;;;;5.57;2.45;;;;;;;8.19;91.67;99655.19;4974314;28;20061;-55
2021/01/19 02:57:35;;;;;;;3.88;2.60;;;;;;;8.20;91.82;99656.78;4974670;28;20503;-55
2021/01/19 03:00:18;;;;;;;2.50;1.77;;;;;;;8.19;91.74;99660.69;4975153;28;20524;-53
2021/01/19 03:02:47;;;;;;;3.20;2.08;;;;;;;8.20;91.75;99667.81;4975568;28;20043;-52
2021/01/19 03:05:17;;;;;;;;;;;;;;;8.17;91.83;99673.25;4974571;28;20118;-56
2021/01/19 03:07:45;;;;;;;2.03;1.67;;;;;;;8.18;91.74;99663.81;4975904;28;19973;-56
2021/01/19 03:10:14;;;;;;;2.75;1.85;;;;;;;8.17;91.67;99663.00;4973803;28;20043;-56
2021/01/19 03:12:43;;;;;;;3.00;1.63;;;;;;;8.19;91.78;99663.44;4976005;28;20043;-56
2021/01/19 03:15:10;;;;;;;3.60;2.03;;;;;;;8.18;91.59;99648.06;4975081;28;20073;-56
2021/01/19 03:17:37;;;;;;;2.40;1.65;;;;;;;8.18;91.82;99636.25;4975899;28;20055;-55
2021/01/19 03:20:05;;;;;;;1.92;1.25;;;;;;;8.18;91.73;99637.03;4974427;28;20053;-57
2021/01/19 03:22:32;;;;;;;2.00;1.58;;;;;;;8.19;91.81;99632.31;4957013;28;20071;-55
2021/01/19 03:24:58;;;;;;;2.33;1.70;;;;;;;8.18;91.76;99637.03;4966858;28;20049;-56
2021/01/19 03:27:24;;;;;;;3.10;2.05;;;;;;;8.20;91.77;99636.69;4975500;28;20461;-56
2021/01/19 03:29:51;;;;;;;2.97;1.90;;;;;;;8.19;91.84;99643.34;4972291;28;20070;-56
2021/01/19 03:32:17;;;;;;;4.03;2.05;;;;;;;8.19;91.68;99646.09;4974085;28;20047;-53
2021/01/19 03:34:43;;;;;;;5.10;2.65;;;;;;;8.19;91.73;99643.34;4974936;28;20481;-56
2021/01/19 03:37:09;;;;;;;4.82;2.50;;;;;;;8.17;91.85;99640.97;4973192;28;20046;-54
2021/01/19 03:39:36;;;;;;;4.90;2.53;;;;;;;8.18;91.93;99647.28;4954725;28;20453;-54
2021/01/19 03:42:02;;;;;;;4.43;3.10;;;;;;;8.20;91.91;99639.44;4974366;28;20567;-55
2021/01/19 03:44:29;;;;;;;4.60;3.10;;;;;;;8.19;91.75;99637.84;4974987;28;20141;-54
2021/01/19 03:46:55;;;;;;;4.22;2.60;;;;;;;8.19;91.79;99632.31;4974470;28;20043;-54
2021/01/19 03:49:22;;;;;;;4.50;3.00;;;;;;;8.17;91.81;99629.13;4977445;28;20073;-54
2021/01/19 03:51:48;;;;;;;5.63;3.30;;;;;;;8.18;92.06;99631.50;4977266;28;20081;-53
2021/01/19 03:54:14;;;;;;;5.45;2.80;;;;;;;8.18;91.88;99633.50;4989963;28;20058;-58
2021/01/19 03:56:41;;;;;;;6.13;3.25;;;;;;;8.19;92.00;99622.09;4983128;28;20105;-54
2021/01/19 03:59:08;;;;;;;4.78;3.42;;;;;;;8.19;91.99;99632.31;4993403;28;20034;-56
2021/01/19 04:01:41;;;;;;;7.40;3.33;;;;;;;8.19;92.15;99649.66;4992960;28;20482;-55
2021/01/19 04:04:08;;;;;;;6.93;3.97;;;;;;;8.19;91.81;99616.59;4993940;28;20039;-54
2021/01/19 04:06:35;;;;;;;6.20;3.40;;;;;;;8.20;91.60;99611.88;4992430;28;20050;-53
2021/01/19 04:09:02;;;;;;;5.97;3.53;;;;;;;8.21;91.79;99638.28;4990848;28;20038;-53
2021/01/19 04:11:28;;;;;;;6.30;4.03;;;;;;;8.21;91.98;99636.31;4990891;28;20121;-51
2021/01/19 04:13:55;;;;;;;8.07;3.88;;;;;;;8.23;91.74;99628.50;4977003;28;20078;-50
2021/01/19 04:16:21;;;;;;;11.23;3.63;;;;;;;8.23;91.90;99609.22;4993600;28;20046;-54
2021/01/19 04:18:47;;;;;;;6.25;4.07;;;;;;;8.23;91.69;99616.69;4976506;28;20046;-55
2021/01/19 04:21:13;;;;;;;7.45;4.55;;;;;;;8.22;91.86;99604.84;4993013;28;20094;-53
2021/01/19 04:23:40;;;;;;;9.80;4.65;;;;;;;8.23;91.93;99614.72;4993462;28;20081;-50
2021/01/19 04:26:06;;;;;;;6.63;4.15;;;;;;;8.23;92.04;99605.66;4989734;28;20057;-53
2021/01/19 04:28:33;;;;;;;7.25;4.25;;;;;;;8.24;91.82;99608.03;4990420;28;20057;-50
2021/01/19 04:30:59;;;;;;;8.23;5.03;;;;;;;8.25;92.05;99608.84;4971716;28;20129;-53
2021/01/19 04:33:26;;;;;;;6.63;4.40;;;;;;;8.24;91.84;99618.25;4993951;28;20050;-55
2021/01/19 04:35:53;;;;;;;8.15;4.15;;;;;;;8.24;92.05;99612.75;4992977;28;20042;-54
2021/01/19 04:38:19;;;;;;;10.20;5.70;;;;;;;8.25;92.14;99597.81;4992894;28;20436;-53
2021/01/19 04:40:46;;;;;;;7.45;4.07;;;;;;;8.25;91.70;99614.34;4992326;28;20568;-51
2021/01/19 04:43:17;;;;;;;10.55;4.40;;;;;;;8.25;91.96;99600.56;4993494;28;20412;-52
2021/01/19 04:45:45;;;;;;;8.13;4.93;;;;;;;8.25;91.90;99592.31;4974763;28;20053;-54
2021/01/19 04:48:12;;;;;;;9.32;5.05;;;;;;;8.27;91.98;99601.84;4993078;28;20034;-54
2021/01/19 04:50:39;;;;;;;6.15;4.30;;;;;;;8.27;92.06;99590.81;4992258;28;20066;-50
2021/01/19 04:53:13;;;;;;;8.60;4.60;;;;;;;8.26;91.86;99585.66;4992983;28;20758;-54
2021/01/19 04:55:46;;;;;;;8.88;4.40;;;;;;;8.27;91.76;99590.00;4990946;28;20484;-52
2021/01/19 04:58:20;;;;;;;7.28;4.65;;;;;;;8.25;91.91;99592.31;4984316;28;20077;-52
2021/01/19 05:01:04;;;;;;;9.13;5.30;;;;;;;8.25;91.79;99586.78;4993116;28;20065;-54
2021/01/19 05:03:42;;;;;;;8.93;5.32;;;;;;;8.26;91.97;99597.44;4991267;28;20069;-54
2021/01/19 05:06:58;;;;;;;12.93;5.07;;;;;;;8.25;91.91;99581.28;4992753;28;20121;-52
2021/01/19 05:09:35;;;;;;;8.38;4.25;;;;;;;8.23;92.00;99567.06;4962149;28;20443;-56
2021/01/19 05:12:05;;;;;;;10.35;5.18;;;;;;;8.23;91.92;99569.81;4992581;28;20041;-52
2021/01/19 05:14:38;;;;;;;8.63;4.80;;;;;;;8.23;91.97;99567.06;4992495;28;20049;-54
2021/01/19 05:17:06;;;;;;;8.23;4.78;;;;;;;8.24;91.63;99563.13;4975195;28;20392;-56
2021/01/19 05:19:32;;;;;;;8.68;4.63;;;;;;;8.23;91.93;99578.88;4991878;28;20053;-52
2021/01/19 05:21:59;;;;;;;6.97;4.03;;;;;;;8.26;91.92;99578.16;4974726;28;20046;-53
2021/01/19 05:24:25;;;;;;;12.60;5.10;;;;;;;8.26;91.98;99574.63;4991270;28;20108;-53
2021/01/19 05:26:52;;;;;;;8.25;4.22;;;;;;;8.26;92.05;99566.34;4992529;28;20054;-51
2021/01/19 05:29:19;;;;;;;9.60;4.05;;;;;;;8.27;91.98;99566.00;4992558;28;20045;-52
2021/01/19 05:31:51;;;;;;;6.80;3.70;;;;;;;8.28;91.98;99553.03;4992768;28;20043;-51
2021/01/19 05:34:17;;;;;;;7.70;4.63;;;;;;;8.29;92.13;99549.88;4988586;28;20038;-50
2021/01/19 05:36:48;;;;;;;9.80;4.97;;;;;;;8.31;92.19;99541.28;4974309;28;20401;-51
2021/01/19 05:39:22;;;;;;;7.57;4.68;;;;;;;8.31;91.89;99555.06;4991812;28;20050;-54
2021/01/19 05:41:53;;;;;;;8.45;4.43;;;;;;;8.33;91.93;99549.97;4974744;28;20050;-52
2021/01/19 05:44:21;;;;;;;;;;;;;;;8.30;92.23;99545.97;4992575;28;20452;-50
2021/01/19 05:46:51;;;;;;;13.57;5.47;;;;;;;8.33;92.04;99538.94;4992620;28;20249;-52
2021/01/19 05:49:21;;;;;;;7.35;4.63;;;;;;;8.32;92.09;99526.31;4990427;28;20129;-53
2021/01/19 05:51:49;;;;;;;9.68;5.22;;;;;;;8.32;92.29;99531.81;4992431;28;20046;-53
2021/01/19 05:54:33;;;;;;;9.60;4.88;;;;;;;8.32;92.14;99512.53;4990557;28;20575;-52
2021/01/19 05:57:23;;;;;;;9.73;4.47;;;;;;;8.33;91.96;99508.63;4990485;28;20122;-53
2021/01/19 06:00:00;;;;;;;10.18;4.10;;;;;;;8.34;92.02;99515.75;4986283;28;20054;-50
2021/01/19 06:02:40;;;;;;;6.95;3.92;;;;;;;8.34;92.27;99513.75;4991203;28;20038;-49
2021/01/19 06:05:13;;;;;;;13.02;3.80;;;;;;;8.34;92.13;99516.53;4991800;28;20058;-50
2021/01/19 06:07:48;;;;;;;6.47;3.80;;;;;;;8.33;92.02;99512.19;4991563;28;20058;-52
2021/01/19 06:10:17;;;;;;;11.18;4.70;;;;;;;8.35;92.02;99506.28;4990383;28;20149;-55
2021/01/19 06:12:44;;;;;;;8.73;3.92;;;;;;;8.35;92.12;99511.81;4973627;28;20042;-51
2021/01/19 06:15:11;;;;;;;7.55;4.60;;;;;;;8.35;92.00;99498.81;4991968;28;20831;-53
2021/01/19 06:17:38;;;;;;;7.88;4.05;;;;;;;8.37;92.15;99495.69;4991676;28;20520;-49
2021/01/19 06:20:08;;;;;;;11.45;4.50;;;;;;;8.36;92.08;99505.16;4991187;28;20464;-49
2021/01/19 06:22:35;;;;;;;13.13;5.53;;;;;;;8.36;92.11;99496.88;4992028;28;20089;-53
2021/01/19 06:25:04;;;;;;;8.13;4.53;;;;;;;8.36;92.04;99503.19;4983135;28;20067;-56
2021/01/19 06:27:33;;;;;;;9.35;4.97;;;;;;;8.37;92.04;99490.19;4989389;28;20057;-50
2021/01/19 06:29:59;;;;;;;16.15;6.45;;;;;;;8.38;92.04;99486.28;4994267;28;20082;-49
2021/01/19 06:32:34;;;;;;;12.65;6.00;;;;;;;8.37;92.08;99488.22;4996107;28;20057;-53
2021/01/19 06:35:21;;;;;;;14.93;6.07;;;;;;;8.34;92.11;99475.16;4995256;28;20054;-53
2021/01/19 06:37:50;;;;;;;19.90;7.30;;;;;;;8.36;92.14;99472.06;4995335;28;20388;-52
2021/01/19 06:40:19;;;;;;;21.98;7.88;;;;;;;8.37;92.17;99479.16;4994586;28;20077;-51
2021/01/19 06:42:59;;;;;;;20.58;8.00;;;;;;;8.35;92.04;99464.94;4978548;28;20096;-52
2021/01/19 06:45:25;;;;;;;16.20;7.95;;;;;;;8.36;92.18;99463.78;4994204;28;20439;-52
2021/01/19 06:47:54;;;;;;;7.47;3.90;;;;;;;8.36;91.93;99463.78;4986833;28;20117;-50
2021/01/19 06:50:26;;;;;;;11.55;5.22;;;;;;;8.35;92.12;99454.69;4995298;28;20507;-52
2021/01/19 06:53:22;;;;;;;16.05;7.65;;;;;;;8.36;92.16;99455.50;4995263;28;20137;-50
2021/01/19 06:56:08;;;;;;;13.65;6.07;;;;;;;8.34;92.28;99452.31;4991230;28;20046;-52
2021/01/19 06:58:44;;;;;;;7.18;3.45;;;;;;;8.35;92.24;99453.91;4982684;28;20057;-51
2021/01/19 07:01:13;;;;;;;8.15;4.10;;;;;;;8.34;92.32;99447.56;4995600;28;20057;-53
2021/01/19 07:03:42;;;;;;;7.85;4.00;;;;;;;8.37;92.27;99451.56;4994002;28;20085;-56
2021/01/19 07:06:10;;;;;;;5.72;3.53;;;;;;;8.38;92.24;99437.44;4995389;28;20488;-54
2021/01/19 07:09:23;;;;;;;7.88;3.60;;;;;;;8.41;92.39;99438.66;4994340;28;20042;-52
2021/01/19 07:12:02;;;;;;;10.80;4.15;;;;;;;8.44;92.43;99440.72;4877981;29;20057;-52
2021/01/19 07:14:39;;;;;;;7.45;3.53;;;;;;;8.46;92.20;99428.16;4876567;29;20049;-54
2021/01/19 07:17:08;;;;;;;8.93;2.85;;;;;;;8.48;92.46;99423.06;4958700;28;20086;-53
2021/01/19 07:19:44;;;;;;;7.00;3.08;;;;;;;8.51;92.40;99414.06;4993724;28;20039;-55
2021/01/19 07:22:23;;;;;;;7.80;2.67;;;;;;;8.56;92.58;99415.72;4994697;28;20080;-53
2021/01/19 07:24:53;;;;;;;9.02;2.53;;;;;;;8.60;92.58;99411.09;4987480;28;20401;-54
2021/01/19 07:27:24;;;;;;;8.82;2.47;;;;;;;8.68;92.90;99403.75;4994549;28;20050;-52
2021/01/19 07:29:51;;;;;;;3.63;1.05;;;;;;;8.74;93.11;99397.56;4994081;28;20046;-56
2021/01/19 07:32:37;;;;;;;6.80;1.50;;;;;;;8.82;93.13;99399.28;4977038;28;20508;-54
2021/01/19 07:35:06;;;;;;;12.30;2.05;;;;;;;8.86;93.06;99400.16;4985785;28;20046;-53
2021/01/19 07:37:36;;;;;;;3.17;1.50;;;;;;;8.90;92.89;99395.50;4975080;28;20043;-54
2021/01/19 07:40:15;;;;;;;4.88;1.17;;;;;;;8.92;93.01;99390.38;4983095;28;20496;-53
2021/01/19 07:42:41;;;;;;;5.40;1.30;;;;;;;8.97;93.05;99381.84;4993771;28;20046;-54
2021/01/19 07:45:09;;;;;;;6.70;1.58;;;;;;;8.97;92.74;99376.31;4992618;28;20481;-53
2021/01/19 07:47:44;;;;;;;6.25;1.30;;;;;;;8.97;92.89;99370.78;4994146;28;20125;-48
2021/01/19 07:50:12;;;;;;;7.57;1.60;;;;;;;8.98;92.83;99366.84;4988728;28;20058;-52
2021/01/19 07:52:41;;;;;;;6.13;1.27;;;;;;;9.00;92.88;99364.50;4993030;28;20049;-55
2021/01/19 07:55:22;;;;;;;6.53;1.30;;;;;;;9.01;92.95;99354.28;4994456;28;20197;-53
2021/01/19 07:57:50;;;;;;;8.45;1.55;;;;;;;9.02;92.98;99347.59;4974676;28;20045;-53
2021/01/19 08:00:25;;;;;;;8.95;1.98;;;;;;;9.02;92.94;99351.16;4977029;28;20053;-55
2021/01/19 08:03:06;;;;;;;3.60;1.15;;;;;;;9.03;93.01;99335.38;4990879;28;20057;-58
2021/01/19 08:05:34;;;;;;;2.22;0.98;;;;;;;9.04;92.75;99332.25;4976985;28;20043;-56
2021/01/19 08:08:00;;;;;;;4.63;1.05;;;;;;;9.04;92.80;99332.25;4976276;28;20070;-57
2021/01/19 08:10:33;;;;;;;7.15;1.40;;;;;;;9.04;92.68;99332.25;4993459;28;20130;-54
2021/01/19 08:13:00;;;;;;;7.63;1.90;;;;;;;9.06;92.70;99324.41;4992668;28;20046;-54
2021/01/19 08:15:31;;;;;;;7.07;1.20;;;;;;;9.06;92.54;99310.59;4993192;28;20097;-51
2021/01/19 08:18:00;;;;;;;1.75;0.82;;;;;;;9.07;92.72;99306.69;4972830;28;20047;-56
2021/01/19 08:20:41;;;;;;;1.98;1.27;;;;;;;9.08;92.62;99324.81;4977680;28;20074;-54
2021/01/19 08:23:16;;;;;;;3.58;0.82;;;;;;;9.09;92.47;99318.13;4992590;28;20042;-55
2021/01/19 08:25:43;;;;;;;9.50;2.67;;;;;;;9.11;92.35;99313.03;4988658;28;20054;-54
2021/01/19 08:28:11;;;;;;;4.15;0.85;;;;;;;9.14;92.20;99306.78;4985248;28;20053;-53
2021/01/19 08:30:40;;;;;;;3.42;0.60;;;;;;;9.15;92.20;99311.16;4979609;28;20046;-54
2021/01/19 08:33:07;;;;;;;1.20;0.40;;;;;;;9.18;92.08;99310.41;4991205;28;20073;-53
2021/01/19 08:35:37;;;;;;;2.90;0.70;;;;;;;9.18;91.85;99298.56;4991184;28;20054;-56
2021/01/19 08:38:03;;;;;;;3.10;0.60;;;;;;;9.19;91.87;99294.63;4992066;28;20035;-57
2021/01/19 08:40:32;;;;;;;3.17;0.90;;;;;;;9.18;91.60;99293.84;4991807;28;20070;-53
2021/01/19 08:43:00;;;;;;;4.53;0.90;;;;;;;9.18;91.53;99288.31;4990740;28;20053;-58
2021/01/19 08:45:32;;;;;;;3.05;0.40;;;;;;;9.18;91.62;99293.03;4980066;28;20104;-54
2021/01/19 08:48:02;;;;;;;0.77;0.57;;;;;;;9.18;91.39;99288.31;4991685;28;20058;-51
2021/01/19 08:50:32;;;;;;;1.30;0.20;;;;;;;9.21;91.38;99285.97;4990793;28;20054;-54
2021/01/19 08:53:07;;;;;;;0.32;0.20;;;;;;;9.21;91.21;99280.47;4990172;28;20061;-54
2021/01/19 08:55:34;;;;;;;1.38;0.30;;;;;;;9.21;91.07;99278.50;4981096;28;20057;-54
2021/01/19 08:58:01;;;;;;;1.90;0.50;;;;;;;9.23;91.23;99280.88;4980752;28;20769;-53
2021/01/19 09:00:36;;;;;;;1.52;0.88;;;;;;;9.24;90.97;99268.66;4972445;28;20050;-53
2021/01/19 09:03:14;;;;;;;2.95;0.35;;;;;;;9.22;90.55;99255.22;4985332;28;20132;-61
2021/01/19 09:06:12;;;;;;;2.13;0.40;;;;;;;9.25;90.66;99259.19;4971544;28;20055;-56
2021/01/19 09:08:41;;;;;;;0.55;0.40;;;;;;;9.26;90.71;99258.03;4984291;28;20094;-55
2021/01/19 09:11:09;;;;;;;0.93;0.90;;;;;;;9.27;90.54;99262.38;4990118;28;20056;-59
2021/01/19 09:13:50;;;;;;;0.70;0.30;;;;;;;9.27;90.41;99252.13;4989161;28;20101;-53
2021/01/19 09:16:24;;;;;;;0.52;0.30;;;;;;;9.29;90.29;99243.50;4991534;28;20543;-53
2021/01/19 09:18:55;;;;;;;0.75;0.30;;;;;;;9.31;90.13;99247.47;4986378;28;20129;-55
2021/01/19 09:21:23;;;;;;;3.42;1.13;;;;;;;9.31;90.25;99241.16;4988773;28;20042;-54
2021/01/19 09:23:50;;;;;;;4.15;1.00;;;;;;;9.31;90.13;99243.91;4986367;28;20050;-51
2021/01/19 09:26:17;;;;;;;3.47;0.47;;;;;;;9.32;90.19;99238.00;4979720;28;20050;-53
2021/01/19 09:28:43;;;;;;;2.78;1.00;;;;;;;9.33;89.93;99245.13;4988929;28;20046;-54
2021/01/19 09:31:33;;;;;;;3.05;0.50;;;;;;;9.33;89.61;99230.53;4991218;28;20042;-55
2021/01/19 09:34:00;;;;;;;2.22;0.43;;;;;;;9.36;89.95;99227.00;4988810;28;20046;-54
2021/01/19 09:36:26;;;;;;;1.08;0.57;;;;;;;9.37;89.76;99217.56;4988357;28;20065;-59
2021/01/19 09:38:53;;;;;;;3.08;0.70;;;;;;;9.38;89.64;99230.19;4973361;28;20054;-54
2021/01/19 09:41:25;;;;;;;3.80;0.50;;;;;;;9.39;89.80;99221.53;4974600;28;20045;-51
2021/01/19 09:43:55;;;;;;;4.68;1.00;;;;;;;9.39;89.61;99210.50;4986488;28;20053;-52
2021/01/19 09:46:26;;;;;;;1.25;0.52;;;;;;;9.40;89.29;99200.25;4989839;28;20078;-53
2021/01/19 09:49:00;;;;;;;4.10;0.80;;;;;;;9.42;89.13;99208.94;4989491;28;20532;-52
2021/01/19 09:51:30;;;;;;;3.60;0.55;;;;;;;9.44;89.09;99209.38;4953915;28;20065;-54
2021/01/19 09:54:00;;;;;;;2.83;0.60;;;;;;;9.46;89.22;99204.25;4976988;28;20404;-51
2021/01/19 09:56:27;;;;;;;3.70;0.77;;;;;;;9.45;88.93;99202.69;4987265;28;20074;-54
2021/01/19 09:59:02;;;;;;;3.28;0.73;;;;;;;9.44;88.89;99195.56;4987617;28;20493;-53
2021/01/19 10:01:28;;;;;;;4.30;1.95;;;;;;;9.44;88.80;99192.78;4989030;28;20078;-55
2021/01/19 10:03:55;;;;;;;3.65;0.80;;;;;;;9.47;88.74;99186.53;4970538;28;20411;-57
2021/01/19 10:06:25;;;;;;;4.72;1.33;;;;;;;9.46;88.87;99182.16;4988605;28;20125;-55
2021/01/19 10:08:56;;;;;;;0.70;0.40;;;;;;;9.45;88.75;99183.34;4989216;28;20046;-50
2021/01/19 10:11:33;;;;;;;9.20;1.20;;;;;;;9.45;88.79;99170.31;4987519;28;20053;-56
2021/01/19 10:14:10;;;;;;;3.35;1.17;;;;;;;9.46;88.75;99174.66;4989672;28;20046;-50
2021/01/19 10:16:41;;;;;;;4.72;0.70;;;;;;;9.47;88.29;99168.00;4988492;28;20050;-54
2021/01/19 10:19:07;;;;;;;4.00;1.00;;;;;;;9.52;88.59;99175.13;4989245;28;20417;-54
2021/01/19 10:21:34;;;;;;;5.22;0.73;;;;;;;9.51;88.62;99163.28;4972236;28;20710;-55
2021/01/19 10:24:01;;;;;;;7.90;1.85;;;;;;;9.53;88.45;99149.13;4955687;28;20070;-51
2021/01/19 10:26:28;;;;;;;2.92;0.88;;;;;;;9.55;88.41;99158.63;4980669;28;20559;-52
2021/01/19 10:28:58;;;;;;;4.32;0.95;;;;;;;9.56;88.39;99156.63;4971639;28;20464;-54
2021/01/19 10:31:27;;;;;;;7.22;1.58;;;;;;;9.56;88.32;99149.13;4987901;28;20057;-51
2021/01/19 10:34:03;;;;;;;3.60;0.85;;;;;;;9.56;88.13;99140.03;4988248;28;20046;-55
2021/01/19 10:36:32;;;;;;;2.80;1.25;;;;;;;9.57;88.34;99144.41;4988805;28;20049;-56
2021/01/19 10:39:08;;;;;;;5.53;1.02;;;;;;;9.55;88.21;99147.56;4983814;28;20476;-54
2021/01/19 10:41:35;;;;;;;6.25;1.23;;;;;;;9.52;88.17;99133.69;4985049;28;20504;-55
2021/01/19 10:44:04;;;;;;;3.38;1.00;;;;;;;9.52;88.12;99134.50;4981219;28;20042;-49
2021/01/19 10:46:31;;;;;;;5.82;1.92;;;;;;;9.50;87.99;99136.84;4989194;28;20053;-54
2021/01/19 10:49:18;;;;;;;4.30;1.10;;;;;;;9.49;88.19;99126.97;4988968;28;20460;-54
2021/01/19 10:51:49;;;;;;;3.42;0.85;;;;;;;9.47;88.24;99103.66;4950302;29;20047;-54
2021/01/19 10:54:16;;;;;;;5.18;1.00;;;;;;;9.44;88.28;99119.00;4959606;28;20136;-55
2021/01/19 10:56:46;;;;;;;3.38;0.73;;;;;;;9.45;88.59;99122.56;4968222;28;20050;-59
2021/01/19 10:59:12;;;;;;;3.50;0.70;;;;;;;9.44;88.55;99115.44;4969583;28;20098;-58
2021/01/19 11:01:39;;;;;;;1.70;0.60;;;;;;;9.44;88.70;99115.44;4951619;28;20106;-58
2021/01/19 11:04:07;;;;;;;2.75;0.60;;;;;;;9.43;88.79;99100.03;4969311;28;20062;-55
2021/01/19 11:06:36;;;;;;;1.48;0.98;;;;;;;9.42;88.65;99104.78;4969394;28;20046;-52
2021/01/19 11:09:05;;;;;;;1.98;0.52;;;;;;;9.41;88.77;99097.66;4969403;28;20047;-53
2021/01/19 11:11:36;;;;;;;10.32;2.17;;;;;;;9.41;88.64;99085.81;4950542;28;20054;-62
2021/01/19 11:14:07;;;;;;;3.72;0.60;;;;;;;9.40;88.71;99084.25;4969748;28;20049;-53
2021/01/19 11:16:40;;;;;;;4.45;0.60;;;;;;;9.40;88.68;99084.25;4970886;28;20047;-54
2021/01/19 11:19:12;;;;;;;0.88;0.50;;;;;;;9.38;88.81;99075.53;4954657;28;20043;-52
2021/01/19 11:21:43;;;;;;;0.73;0.47;;;;;;;9.40;88.93;99062.16;4972260;28;20114;-54
2021/01/19 11:24:11;;;;;;;0.90;0.50;;;;;;;9.40;88.81;99064.91;4948917;29;20047;-53
2021/01/19 11:26:40;;;;;;;1.92;0.55;;;;;;;9.39;89.01;99055.03;4971527;28;20466;-56
2021/01/19 11:29:10;;;;;;;2.83;0.63;;;;;;;9.39;88.79;99049.50;4972403;28;20050;-55
2021/01/19 11:31:38;;;;;;;2.90;0.60;;;;;;;9.38;88.90;99045.16;4972425;28;20046;-55
2021/01/19 11:34:06;;;;;;;5.03;1.20;;;;;;;9.37;88.99;99029.75;4970485;28;20070;-56
2021/01/19 11:36:36;;;;;;;4.38;1.05;;;;;;;9.36;88.85;99034.50;4965952;28;20061;-53
2021/01/19 11:39:06;;;;;;;2.75;0.50;;;;;;;9.36;88.97;99025.41;4972283;28;20106;-54
2021/01/19 11:41:36;;;;;;;3.17;0.77;;;;;;;9.38;88.88;99009.25;4972001;28;20051;-53
2021/01/19 11:44:03;;;;;;;1.75;0.52;;;;;;;9.38;88.86;99003.72;4971006;28;20223;-54
2021/01/19 11:46:32;;;;;;;2.78;0.82;;;;;;;9.41;88.75;99008.47;4942513;28;20058;-50
2021/01/19 11:49:01;;;;;;;4.38;0.45;;;;;;;9.44;88.88;98991.16;4972794;28;20539;-56
2021/01/19 11:51:32;;;;;;;0.50;0.50;;;;;;;9.46;88.94;98983.28;4990737;28;20053;-53
2021/01/19 11:54:00;;;;;;;2.92;1.67;;;;;;;9.49;89.05;98977.78;4990806;28;20061;-56